Time;durP1;ratioP1;P1;durP2;ratioP2;P2;SDS_P1;SDS_P2;PMS_P1;PMS_P2;Temp;Humidity;BMP_temperature;BMP_pressure;BME280_temperature;BME280_humidity;BME280_pressure;Samples;Min_cycle;Max_cycle;Signal;HPM_P1;HPM_P2
2023/12/04 00:01:17;;;;;;;27.25;16.75;;;;;;;;;;12821172;22;20027;-71
2023/12/04 00:06:14;;;;;;;27.85;16.60;;;;;;;;;;12815995;22;20047;-71
2023/12/04 00:11:10;;;;;;;32.53;15.52;;;;;;;;;;12820862;22;20078;-71
2023/12/04 00:16:06;;;;;;;27.70;16.23;;;;;;;;;;12821594;22;20030;-71
2023/12/04 00:21:03;;;;;;;24.63;15.98;;;;;;;;;;12820848;22;20073;-71
2023/12/04 00:25:59;;;;;;;23.80;16.08;;;;;;;;;;12821551;22;20520;-70
2023/12/04 00:30:55;;;;;;;28.40;17.23;;;;;;;;;;12821251;22;20019;-71
2023/12/04 00:35:52;;;;;;;27.30;15.80;;;;;;;;;;12821941;22;20019;-71
2023/12/04 00:40:48;;;;;;;22.77;15.40;;;;;;;;;;12819160;22;20023;-72
2023/12/04 00:45:45;;;;;;;24.15;15.82;;;;;;;;;;12820368;22;20027;-71
2023/12/04 00:50:41;;;;;;;22.95;15.00;;;;;;;;;;12820155;22;20362;-71
2023/12/04 00:55:37;;;;;;;25.58;15.77;;;;;;;;;;12820362;22;20353;-71
2023/12/04 01:00:34;;;;;;;25.85;14.98;;;;;;;;;;12824468;22;20023;-71
2023/12/04 01:05:30;;;;;;;30.00;16.48;;;;;;;;;;12825052;22;20045;-71
2023/12/04 01:10:26;;;;;;;23.23;14.93;;;;;;;;;;12819499;22;20031;-71
2023/12/04 01:15:23;;;;;;;27.98;15.40;;;;;;;;;;12825530;22;20019;-71
2023/12/04 01:20:20;;;;;;;24.35;16.10;;;;;;;;;;12825207;22;20022;-72
2023/12/04 01:25:16;;;;;;;23.13;14.90;;;;;;;;;;12822820;22;20072;-71
2023/12/04 01:30:13;;;;;;;26.00;15.07;;;;;;;;;;12824486;22;20484;-71
2023/12/04 01:35:10;;;;;;;23.63;15.07;;;;;;;;;;12823848;22;20019;-71
2023/12/04 01:40:07;;;;;;;28.33;15.90;;;;;;;;;;12823831;22;20511;-71
2023/12/04 01:45:03;;;;;;;25.88;15.65;;;;;;;;;;12824300;22;20091;-72
2023/12/04 01:50:00;;;;;;;23.15;14.25;;;;;;;;;;12822059;22;20027;-71
2023/12/04 01:54:56;;;;;;;24.50;14.93;;;;;;;;;;12823559;22;20361;-72
2023/12/04 01:59:53;;;;;;;28.52;15.23;;;;;;;;;;12822517;22;20028;-71
2023/12/04 02:04:49;;;;;;;22.88;14.23;;;;;;;;;;12823133;22;20077;-71
2023/12/04 02:09:46;;;;;;;26.70;15.68;;;;;;;;;;12819651;22;20460;-72
2023/12/04 02:14:43;;;;;;;22.33;14.82;;;;;;;;;;12817471;22;20019;-71
2023/12/04 02:19:39;;;;;;;22.63;14.55;;;;;;;;;;12822114;22;20486;-72
2023/12/04 02:24:36;;;;;;;32.88;16.00;;;;;;;;;;12822733;22;20027;-71
2023/12/04 02:29:36;;;;;;;25.88;15.57;;;;;;;;;;12822554;22;20491;-72
2023/12/04 02:34:33;;;;;;;21.55;14.00;;;;;;;;;;12822138;22;20389;-71
2023/12/04 02:39:30;;;;;;;23.08;14.07;;;;;;;;;;12822429;22;20407;-72
2023/12/04 02:44:27;;;;;;;25.00;14.68;;;;;;;;;;12820983;22;20088;-71
2023/12/04 02:49:23;;;;;;;30.42;14.88;;;;;;;;;;12822081;22;20026;-71
2023/12/04 02:54:19;;;;;;;23.08;15.32;;;;;;;;;;12821499;22;20027;-72
2023/12/04 02:59:16;;;;;;;25.23;14.52;;;;;;;;;;12819950;22;20019;-72
2023/12/04 03:04:12;;;;;;;24.35;14.40;;;;;;;;;;12821298;22;20338;-71
2023/12/04 03:09:08;;;;;;;23.52;14.02;;;;;;;;;;12821761;22;20587;-71
2023/12/04 03:14:05;;;;;;;23.13;13.43;;;;;;;;;;12819048;22;20555;-71
2023/12/04 03:19:01;;;;;;;22.17;14.13;;;;;;;;;;12817578;22;20392;-71
2023/12/04 03:23:57;;;;;;;22.10;12.30;;;;;;;;;;12821928;22;20110;-72
2023/12/04 03:28:54;;;;;;;18.63;13.57;;;;;;;;;;12820671;22;20034;-72
2023/12/04 03:33:50;;;;;;;26.48;13.68;;;;;;;;;;12818579;22;20023;-71
2023/12/04 03:38:47;;;;;;;20.65;13.45;;;;;;;;;;12821257;22;20060;-71
2023/12/04 03:43:44;;;;;;;24.15;14.45;;;;;;;;;;12820480;22;20476;-71
2023/12/04 03:48:40;;;;;;;23.10;14.27;;;;;;;;;;12821461;22;20524;-71
2023/12/04 03:53:36;;;;;;;25.73;13.48;;;;;;;;;;12820803;22;20028;-71
2023/12/04 03:58:33;;;;;;;25.92;13.82;;;;;;;;;;12821090;22;20029;-72
2023/12/04 04:03:29;;;;;;;19.38;13.38;;;;;;;;;;12819151;22;20072;-71
2023/12/04 04:08:25;;;;;;;20.10;13.88;;;;;;;;;;12820294;22;20027;-71
2023/12/04 04:13:22;;;;;;;20.55;13.93;;;;;;;;;;12818848;22;20035;-71
2023/12/04 04:18:19;;;;;;;21.25;13.88;;;;;;;;;;12820916;22;20076;-71
2023/12/04 04:23:15;;;;;;;21.30;13.88;;;;;;;;;;12820664;22;20030;-71
2023/12/04 04:28:11;;;;;;;21.80;13.93;;;;;;;;;;12816235;22;20023;-71
2023/12/04 04:33:08;;;;;;;25.48;14.23;;;;;;;;;;12822520;22;20027;-71
2023/12/04 04:38:04;;;;;;;20.05;13.05;;;;;;;;;;12825365;22;20019;-71
2023/12/04 04:43:01;;;;;;;21.67;15.10;;;;;;;;;;12824348;22;20034;-71
2023/12/04 04:47:57;;;;;;;17.85;12.40;;;;;;;;;;12824346;22;20023;-72
2023/12/04 04:52:54;;;;;;;21.63;13.32;;;;;;;;;;12825082;22;20019;-70
2023/12/04 04:57:50;;;;;;;21.45;13.82;;;;;;;;;;12824657;22;20080;-70
2023/12/04 05:02:46;;;;;;;20.95;13.30;;;;;;;;;;12823648;22;20499;-71
2023/12/04 05:07:43;;;;;;;22.02;13.32;;;;;;;;;;12825158;22;20019;-71
2023/12/04 05:12:40;;;;;;;19.45;12.05;;;;;;;;;;12824040;22;20020;-70
2023/12/04 05:17:36;;;;;;;23.45;13.10;;;;;;;;;;12825319;22;20072;-71
2023/12/04 05:22:32;;;;;;;18.48;11.70;;;;;;;;;;12824555;22;20027;-70
2023/12/04 05:27:29;;;;;;;22.85;13.00;;;;;;;;;;12824863;22;20150;-71
2023/12/04 05:32:25;;;;;;;16.77;11.88;;;;;;;;;;12824382;22;20387;-71
2023/12/04 05:37:21;;;;;;;21.70;12.25;;;;;;;;;;12819313;22;20061;-70
2023/12/04 05:42:18;;;;;;;17.88;13.27;;;;;;;;;;12824685;22;20031;-71
2023/12/04 05:47:14;;;;;;;20.85;13.57;;;;;;;;;;12823958;22;20031;-71
2023/12/04 05:52:11;;;;;;;18.85;13.52;;;;;;;;;;12824147;22;20093;-72
2023/12/04 05:57:07;;;;;;;18.42;12.52;;;;;;;;;;12823898;22;20027;-71
2023/12/04 06:02:03;;;;;;;22.88;14.50;;;;;;;;;;12824689;22;20491;-71
2023/12/04 06:07:00;;;;;;;21.58;13.60;;;;;;;;;;12823856;22;20034;-71
2023/12/04 06:11:56;;;;;;;19.15;12.70;;;;;;;;;;12824230;22;20027;-71
2023/12/04 06:16:53;;;;;;;20.45;13.55;;;;;;;;;;12823453;22;20369;-71
2023/12/04 06:21:49;;;;;;;20.10;14.15;;;;;;;;;;12823718;22;20039;-71
2023/12/04 06:26:48;;;;;;;22.10;14.32;;;;;;;;;;12823254;22;20023;-71
2023/12/04 06:31:44;;;;;;;19.20;14.35;;;;;;;;;;12822681;22;20023;-71
2023/12/04 06:36:41;;;;;;;21.83;15.20;;;;;;;;;;12817495;22;20346;-71
2023/12/04 06:41:41;;;;;;;20.92;14.38;;;;;;;;;;12823940;22;20023;-71
2023/12/04 06:46:38;;;;;;;23.33;15.73;;;;;;;;;;12822282;22;20023;-72
2023/12/04 06:51:35;;;;;;;24.98;16.00;;;;;;;;;;12822775;22;20465;-71
2023/12/04 06:56:31;;;;;;;25.35;16.83;;;;;;;;;;12821673;22;20096;-71
2023/12/04 07:01:27;;;;;;;21.52;15.07;;;;;;;;;;12822587;22;20519;-71
2023/12/04 07:06:24;;;;;;;27.65;15.80;;;;;;;;;;12821153;22;20019;-72
2023/12/04 07:11:20;;;;;;;25.60;16.60;;;;;;;;;;12822140;22;20031;-72
2023/12/04 07:16:17;;;;;;;29.75;16.65;;;;;;;;;;12822670;22;20027;-72
2023/12/04 07:21:13;;;;;;;21.20;15.02;;;;;;;;;;12822452;22;20092;-71
2023/12/04 07:26:09;;;;;;;24.10;15.68;;;;;;;;;;12821435;22;20465;-71
2023/12/04 07:31:06;;;;;;;26.05;16.20;;;;;;;;;;12822371;22;20031;-72
2023/12/04 07:36:02;;;;;;;26.65;15.73;;;;;;;;;;12822893;22;20058;-72
2023/12/04 07:40:59;;;;;;;25.70;15.88;;;;;;;;;;12821646;22;20057;-71
2023/12/04 07:45:56;;;;;;;32.05;16.83;;;;;;;;;;12817368;22;20031;-72
2023/12/04 07:50:52;;;;;;;22.23;15.32;;;;;;;;;;12820878;22;20015;-72
2023/12/04 07:55:50;;;;;;;21.05;15.20;;;;;;;;;;12821174;22;20023;-72
2023/12/04 08:00:47;;;;;;;22.42;15.32;;;;;;;;;;12822139;22;20530;-71
2023/12/04 08:05:44;;;;;;;26.52;16.33;;;;;;;;;;12822085;22;20019;-71
2023/12/04 08:10:40;;;;;;;22.70;15.48;;;;;;;;;;12824211;22;20019;-72
2023/12/04 08:15:37;;;;;;;26.42;16.17;;;;;;;;;;12826569;22;20437;-71
2023/12/04 08:20:33;;;;;;;22.77;15.60;;;;;;;;;;12824665;22;20019;-71
2023/12/04 08:25:38;;;;;;;23.02;15.48;;;;;;;;;;12826035;22;20098;-71
2023/12/04 08:30:34;;;;;;;22.65;14.70;;;;;;;;;;12825730;22;20473;-72
2023/12/04 08:35:31;;;;;;;21.25;14.02;;;;;;;;;;12825767;22;20037;-72
2023/12/04 08:40:27;;;;;;;22.77;15.50;;;;;;;;;;12825386;22;20026;-71
2023/12/04 08:45:24;;;;;;;22.98;15.27;;;;;;;;;;12819601;22;20026;-71
2023/12/04 08:50:20;;;;;;;20.30;14.75;;;;;;;;;;12825540;22;20015;-71
2023/12/04 08:55:16;;;;;;;24.85;15.55;;;;;;;;;;12824586;22;20023;-72
2023/12/04 09:00:14;;;;;;;24.60;15.57;;;;;;;;;;12824874;22;20023;-71
2023/12/04 09:05:10;;;;;;;28.08;16.73;;;;;;;;;;12824509;22;20401;-71
2023/12/04 09:10:07;;;;;;;21.40;14.95;;;;;;;;;;12825079;22;20512;-71
2023/12/04 09:15:12;;;;;;;21.73;16.08;;;;;;;;;;12824870;22;20026;-71
2023/12/04 09:20:08;;;;;;;23.02;15.70;;;;;;;;;;12824551;22;20015;-72
2023/12/04 09:25:05;;;;;;;23.17;15.50;;;;;;;;;;12824544;22;20019;-71
2023/12/04 09:30:02;;;;;;;24.83;15.05;;;;;;;;;;12824933;22;20095;-71
2023/12/04 09:34:58;;;;;;;24.17;16.23;;;;;;;;;;12824466;22;20403;-71
2023/12/04 09:39:55;;;;;;;27.83;17.90;;;;;;;;;;12824407;22;20029;-71
2023/12/04 09:44:52;;;;;;;21.42;14.93;;;;;;;;;;12824194;22;20457;-71
2023/12/04 09:49:51;;;;;;;22.48;14.90;;;;;;;;;;12822055;22;20033;-71
2023/12/04 09:54:47;;;;;;;23.33;15.75;;;;;;;;;;12819352;22;20023;-71
2023/12/04 09:59:45;;;;;;;23.65;16.92;;;;;;;;;;12823713;22;20027;-71
2023/12/04 10:04:42;;;;;;;21.95;15.93;;;;;;;;;;12822860;22;20073;-71
2023/12/04 10:09:38;;;;;;;22.80;15.25;;;;;;;;;;12823772;22;20058;-71
2023/12/04 10:14:35;;;;;;;25.52;16.95;;;;;;;;;;12823401;22;20047;-71
2023/12/04 10:19:32;;;;;;;25.10;15.98;;;;;;;;;;12823007;22;20511;-71
2023/12/04 10:24:29;;;;;;;27.38;14.15;;;;;;;;;;12822998;22;20718;-72
2023/12/04 10:29:28;;;;;;;23.20;15.02;;;;;;;;;;12822549;22;20030;-71
2023/12/04 10:34:26;;;;;;;21.90;14.98;;;;;;;;;;12823206;22;20100;-70
2023/12/04 10:39:22;;;;;;;25.83;15.20;;;;;;;;;;12816684;22;20073;-69
2023/12/04 10:44:20;;;;;;;26.13;15.52;;;;;;;;;;12824024;22;20106;-71
2023/12/04 10:49:18;;;;;;;24.10;14.70;;;;;;;;;;12819827;22;20732;-68
2023/12/04 10:54:15;;;;;;;25.23;14.02;;;;;;;;;;12814670;22;20027;-71
2023/12/04 10:59:15;;;;;;;25.48;14.98;;;;;;;;;;12819594;22;20633;-71
2023/12/04 11:04:15;;;;;;;24.63;15.52;;;;;;;;;;12813334;22;20019;-71
2023/12/04 11:09:11;;;;;;;20.98;14.90;;;;;;;;;;12809018;22;20057;-71
2023/12/04 11:14:10;;;;;;;22.48;14.82;;;;;;;;;;12818625;22;20031;-70
2023/12/04 11:19:22;;;;;;;22.83;15.63;;;;;;;;;;12819060;22;20110;-71
2023/12/04 11:24:18;;;;;;;23.97;15.30;;;;;;;;;;12818992;22;20030;-71
2023/12/04 11:29:15;;;;;;;27.80;15.25;;;;;;;;;;12815755;22;20031;-70
2023/12/04 11:34:11;;;;;;;24.85;15.20;;;;;;;;;;12816573;22;20037;-70
2023/12/04 11:39:09;;;;;;;20.80;14.70;;;;;;;;;;12817757;22;20047;-69
2023/12/04 11:44:16;;;;;;;23.38;15.15;;;;;;;;;;12816394;22;20072;-70
2023/12/04 11:49:24;;;;;;;28.33;15.52;;;;;;;;;;12819976;22;20110;-71
2023/12/04 11:54:24;;;;;;;29.33;15.65;;;;;;;;;;12807158;22;20439;-70
2023/12/04 11:59:21;;;;;;;20.67;14.13;;;;;;;;;;12816175;22;20072;-71
2023/12/04 12:04:18;;;;;;;19.33;14.18;;;;;;;;;;12813296;22;20034;-71
2023/12/04 12:09:14;;;;;;;22.88;14.70;;;;;;;;;;12812753;22;20330;-69
2023/12/04 12:14:11;;;;;;;31.13;15.75;;;;;;;;;;12819189;22;20019;-69
2023/12/04 12:19:07;;;;;;;24.85;14.65;;;;;;;;;;12820329;22;20023;-69
2023/12/04 12:24:05;;;;;;;19.77;13.75;;;;;;;;;;12818918;22;20415;-70
2023/12/04 12:29:02;;;;;;;22.63;15.20;;;;;;;;;;12819057;22;20027;-70
2023/12/04 12:33:58;;;;;;;22.35;14.23;;;;;;;;;;12819679;22;20030;-71
2023/12/04 12:38:56;;;;;;;21.65;14.30;;;;;;;;;;12820593;22;20051;-70
2023/12/04 12:43:56;;;;;;;20.15;13.13;;;;;;;;;;12818114;22;20528;-70
2023/12/04 12:48:52;;;;;;;21.50;13.52;;;;;;;;;;12819318;22;20047;-71
2023/12/04 12:53:49;;;;;;;24.23;13.25;;;;;;;;;;12818205;22;20698;-70
2023/12/04 12:58:48;;;;;;;20.67;13.82;;;;;;;;;;12823440;22;20121;-69
2023/12/04 13:03:47;;;;;;;22.77;15.45;;;;;;;;;;12817194;22;20027;-71
2023/12/04 13:08:44;;;;;;;22.67;15.55;;;;;;;;;;12815104;22;20035;-70
2023/12/04 13:13:41;;;;;;;23.20;14.32;;;;;;;;;;12822663;22;20480;-70
2023/12/04 13:18:38;;;;;;;24.13;15.20;;;;;;;;;;12818938;22;20510;-71
2023/12/04 13:23:35;;;;;;;24.17;15.95;;;;;;;;;;12820653;22;20472;-69
2023/12/04 13:28:31;;;;;;;25.88;14.93;;;;;;;;;;12819750;22;20077;-71
2023/12/04 13:33:39;;;;;;;19.45;15.05;;;;;;;;;;12822833;22;20372;-71
2023/12/04 13:38:35;;;;;;;22.88;15.50;;;;;;;;;;12821798;22;20031;-71
2023/12/04 13:43:51;;;;;;;26.50;15.38;;;;;;;;;;12822068;22;20034;-71
2023/12/04 13:48:48;;;;;;;25.65;15.68;;;;;;;;;;12822356;22;20049;-71
2023/12/04 13:53:48;;;;;;;25.25;15.77;;;;;;;;;;12823498;22;20034;-71
2023/12/04 13:58:45;;;;;;;22.63;15.63;;;;;;;;;;12822913;22;20078;-71
2023/12/04 14:03:42;;;;;;;23.17;15.55;;;;;;;;;;12816317;22;20027;-71
2023/12/04 14:08:39;;;;;;;23.15;15.60;;;;;;;;;;12818734;22;20038;-70
2023/12/04 14:13:36;;;;;;;32.50;16.52;;;;;;;;;;12822167;22;20042;-71
2023/12/04 14:18:32;;;;;;;25.83;16.73;;;;;;;;;;12821066;22;20103;-71
2023/12/04 14:23:28;;;;;;;23.25;15.80;;;;;;;;;;12821284;22;20081;-71
2023/12/04 14:28:25;;;;;;;21.90;15.57;;;;;;;;;;12822502;22;20019;-71
2023/12/04 14:33:28;;;;;;;21.45;15.20;;;;;;;;;;12808988;22;20465;-71
2023/12/04 14:38:25;;;;;;;25.63;16.27;;;;;;;;;;12818768;22;20492;-71
2023/12/04 14:43:21;;;;;;;21.55;15.57;;;;;;;;;;12819727;22;20041;-71
2023/12/04 14:48:18;;;;;;;23.45;15.85;;;;;;;;;;12816584;22;20027;-71
2023/12/04 14:53:16;;;;;;;25.08;16.60;;;;;;;;;;12815279;22;20073;-71
2023/12/04 15:04:15;;;;;;;23.88;15.30;;;;;;;;;;12816826;22;20023;-71
2023/12/04 15:09:41;;;;;;;19.20;15.10;;;;;;;;;;12813220;22;20488;-71
2023/12/04 15:24:02;;;;;;;19.02;15.07;;;;;;;;;;12820685;22;19989;-72
2023/12/04 15:28:58;;;;;;;22.00;15.90;;;;;;;;;;12815555;22;20019;-71
2023/12/04 15:33:55;;;;;;;21.75;16.88;;;;;;;;;;12811747;22;20029;-70
2023/12/04 15:38:51;;;;;;;19.88;14.98;;;;;;;;;;12819467;22;20072;-71
2023/12/04 15:43:48;;;;;;;23.25;16.25;;;;;;;;;;12818476;22;20054;-71
2023/12/04 15:48:45;;;;;;;21.77;15.30;;;;;;;;;;12821105;22;20530;-71
2023/12/04 15:53:42;;;;;;;21.60;15.02;;;;;;;;;;12820969;22;20027;-71
2023/12/04 15:58:39;;;;;;;21.35;15.07;;;;;;;;;;12820870;22;20493;-71
2023/12/04 16:03:35;;;;;;;20.10;14.80;;;;;;;;;;12820673;22;20492;-70
2023/12/04 16:08:32;;;;;;;18.80;13.80;;;;;;;;;;12819674;22;20023;-71
2023/12/04 16:13:28;;;;;;;18.75;14.02;;;;;;;;;;12814438;22;20058;-71
2023/12/04 16:18:25;;;;;;;20.35;14.02;;;;;;;;;;12820671;22;20118;-71
2023/12/04 16:23:22;;;;;;;18.58;13.73;;;;;;;;;;12820226;22;20384;-71
2023/12/04 16:28:18;;;;;;;16.85;13.90;;;;;;;;;;12820451;22;20030;-71
2023/12/04 16:33:15;;;;;;;19.60;13.85;;;;;;;;;;12824661;22;20027;-71
2023/12/04 16:38:12;;;;;;;21.05;14.35;;;;;;;;;;12819011;22;20090;-71
2023/12/04 16:43:09;;;;;;;16.25;13.13;;;;;;;;;;12821400;22;20027;-71
2023/12/04 16:48:05;;;;;;;15.73;12.73;;;;;;;;;;12820751;22;20407;-71
2023/12/04 16:53:02;;;;;;;17.38;12.82;;;;;;;;;;12818957;22;20023;-71
2023/12/04 16:58:03;;;;;;;15.30;12.68;;;;;;;;;;12820981;22;20430;-71
2023/12/04 17:02:59;;;;;;;16.48;12.10;;;;;;;;;;12820140;22;20030;-71
2023/12/04 17:07:57;;;;;;;13.55;11.77;;;;;;;;;;12821435;22;20023;-72
2023/12/04 17:12:54;;;;;;;15.18;11.70;;;;;;;;;;12812828;22;20023;-72
2023/12/04 17:17:50;;;;;;;12.32;11.02;;;;;;;;;;12821530;22;20031;-72
2023/12/04 17:22:47;;;;;;;14.55;11.38;;;;;;;;;;12819507;22;20473;-71
2023/12/04 17:27:44;;;;;;;15.20;11.75;;;;;;;;;;12822204;22;20517;-72
2023/12/04 17:32:40;;;;;;;14.40;11.27;;;;;;;;;;12820991;22;20030;-72
2023/12/04 17:37:37;;;;;;;14.48;10.82;;;;;;;;;;12816844;22;20027;-72
2023/12/04 17:42:33;;;;;;;14.20;11.75;;;;;;;;;;12824312;22;20360;-72
2023/12/04 17:47:30;;;;;;;15.40;11.20;;;;;;;;;;12820678;22;20477;-72
2023/12/04 17:52:26;;;;;;;16.38;11.25;;;;;;;;;;12822613;22;20027;-72
2023/12/04 17:57:23;;;;;;;12.27;10.63;;;;;;;;;;12821955;22;20027;-72
2023/12/04 18:02:20;;;;;;;16.38;10.48;;;;;;;;;;12823039;22;20023;-72
2023/12/04 18:07:16;;;;;;;13.60;10.07;;;;;;;;;;12820147;22;20019;-72
2023/12/04 18:12:12;;;;;;;11.93;9.52;;;;;;;;;;12819899;22;20023;-70
2023/12/04 18:17:09;;;;;;;12.15;8.95;;;;;;;;;;12824769;22;20111;-70
2023/12/04 18:22:05;;;;;;;11.40;9.30;;;;;;;;;;12822978;22;20054;-70
2023/12/04 18:27:01;;;;;;;12.75;9.50;;;;;;;;;;12825464;22;20023;-70
2023/12/04 18:31:59;;;;;;;13.43;9.40;;;;;;;;;;12824153;22;20030;-70
2023/12/04 18:36:58;;;;;;;13.50;9.88;;;;;;;;;;12824835;22;20457;-70
2023/12/04 18:41:54;;;;;;;11.75;9.57;;;;;;;;;;12818518;22;20372;-71
2023/12/04 18:46:54;;;;;;;13.40;9.75;;;;;;;;;;12819400;22;20029;-71
2023/12/04 18:51:51;;;;;;;13.00;10.25;;;;;;;;;;12827804;22;20031;-71
2023/12/04 18:56:47;;;;;;;10.40;9.25;;;;;;;;;;12824673;22;20081;-71
2023/12/04 19:01:43;;;;;;;9.32;7.93;;;;;;;;;;12822495;22;20034;-71
2023/12/04 19:06:40;;;;;;;13.60;9.07;;;;;;;;;;12825815;22;20033;-71
2023/12/04 19:11:36;;;;;;;15.00;10.00;;;;;;;;;;12824606;22;20713;-70
2023/12/04 19:16:32;;;;;;;11.00;8.80;;;;;;;;;;12818655;22;20031;-70
2023/12/04 19:21:29;;;;;;;9.25;8.30;;;;;;;;;;12820483;22;20031;-70
2023/12/04 19:26:25;;;;;;;9.38;8.13;;;;;;;;;;12820521;22;20054;-70
2023/12/04 19:31:22;;;;;;;11.50;8.35;;;;;;;;;;12821487;22;20019;-70
2023/12/04 19:36:18;;;;;;;14.50;8.88;;;;;;;;;;12821635;22;20027;-70
2023/12/04 19:41:15;;;;;;;12.43;9.32;;;;;;;;;;12822204;22;20027;-70
2023/12/04 19:46:11;;;;;;;11.63;8.25;;;;;;;;;;12820808;22;20027;-70
2023/12/04 19:51:07;;;;;;;12.90;9.50;;;;;;;;;;12821847;22;20049;-70
2023/12/04 19:56:08;;;;;;;13.55;9.07;;;;;;;;;;12821204;22;20465;-70
2023/12/04 20:01:04;;;;;;;12.43;9.50;;;;;;;;;;12821689;22;20038;-70
2023/12/04 20:06:01;;;;;;;12.93;9.10;;;;;;;;;;12823367;22;20031;-72
2023/12/04 20:10:57;;;;;;;11.82;9.57;;;;;;;;;;12825365;22;20027;-71
2023/12/04 20:15:53;;;;;;;14.00;10.45;;;;;;;;;;12820215;22;20065;-71
2023/12/04 20:20:50;;;;;;;18.17;11.02;;;;;;;;;;12825916;22;20023;-70
2023/12/04 20:25:46;;;;;;;13.88;10.77;;;;;;;;;;12823503;22;20023;-70
2023/12/04 20:30:42;;;;;;;16.02;10.77;;;;;;;;;;12822328;22;20018;-71
2023/12/04 20:35:39;;;;;;;17.80;11.45;;;;;;;;;;12824777;22;20111;-71
2023/12/04 20:40:35;;;;;;;12.80;10.30;;;;;;;;;;12825492;22;20459;-71
2023/12/04 20:45:32;;;;;;;16.85;11.40;;;;;;;;;;12816625;22;20023;-70
2023/12/04 20:50:29;;;;;;;17.15;11.82;;;;;;;;;;12823049;22;20043;-70
2023/12/04 20:55:25;;;;;;;19.45;12.38;;;;;;;;;;12823427;22;20399;-69
2023/12/04 21:00:23;;;;;;;17.13;11.43;;;;;;;;;;12810736;22;20034;-66
2023/12/04 21:05:19;;;;;;;16.95;11.23;;;;;;;;;;12821209;22;20019;-66
2023/12/04 21:10:16;;;;;;;16.02;11.15;;;;;;;;;;12820890;22;20212;-67
2023/12/04 21:15:13;;;;;;;15.15;10.75;;;;;;;;;;12821632;22;20023;-67
2023/12/04 21:20:09;;;;;;;14.93;10.82;;;;;;;;;;12816174;22;20030;-67
2023/12/04 21:25:06;;;;;;;19.80;10.85;;;;;;;;;;12823579;22;20086;-67
2023/12/04 21:30:04;;;;;;;17.08;10.02;;;;;;;;;;12822597;22;20022;-65
2023/12/04 21:35:01;;;;;;;26.75;11.80;;;;;;;;;;12824201;22;20051;-67
2023/12/04 21:39:58;;;;;;;15.50;10.35;;;;;;;;;;12821161;22;20023;-67
2023/12/04 21:44:54;;;;;;;16.05;10.32;;;;;;;;;;12824065;22;20027;-68
2023/12/04 21:49:51;;;;;;;15.30;10.70;;;;;;;;;;12821119;22;20528;-68
2023/12/04 21:54:48;;;;;;;16.55;11.02;;;;;;;;;;12822775;22;20023;-68
2023/12/04 21:59:44;;;;;;;17.35;11.10;;;;;;;;;;12822437;22;20031;-67
2023/12/04 22:04:41;;;;;;;19.60;10.55;;;;;;;;;;12823194;22;20023;-67
2023/12/04 22:09:38;;;;;;;19.17;11.63;;;;;;;;;;12823002;22;20077;-67
2023/12/04 22:14:34;;;;;;;18.48;10.57;;;;;;;;;;12822191;22;20027;-66
2023/12/04 22:19:30;;;;;;;11.75;9.10;;;;;;;;;;12816915;22;20369;-66
2023/12/04 22:24:27;;;;;;;15.20;10.45;;;;;;;;;;12822749;22;20019;-66
2023/12/04 22:29:23;;;;;;;15.07;9.27;;;;;;;;;;12822985;22;20023;-66
2023/12/04 22:34:19;;;;;;;15.00;10.48;;;;;;;;;;12821238;22;20115;-66
2023/12/04 22:39:16;;;;;;;17.50;10.57;;;;;;;;;;12822267;22;20330;-66
2023/12/04 22:44:12;;;;;;;12.95;9.70;;;;;;;;;;12821963;22;20106;-67
2023/12/04 22:49:09;;;;;;;15.35;10.13;;;;;;;;;;12820830;22;20015;-66
2023/12/04 22:54:05;;;;;;;17.25;11.23;;;;;;;;;;12821339;22;20034;-67
2023/12/04 22:59:01;;;;;;;13.60;9.70;;;;;;;;;;12822717;22;20023;-67
2023/12/04 23:03:58;;;;;;;14.18;8.85;;;;;;;;;;12822045;22;20073;-66
2023/12/04 23:08:56;;;;;;;14.10;10.18;;;;;;;;;;12821808;22;20023;-66
2023/12/04 23:13:52;;;;;;;19.33;11.48;;;;;;;;;;12816864;22;20461;-66
2023/12/04 23:18:49;;;;;;;15.32;11.00;;;;;;;;;;12816058;22;20110;-67
2023/12/04 23:23:46;;;;;;;16.58;10.30;;;;;;;;;;12821853;22;20019;-66
2023/12/04 23:28:42;;;;;;;15.02;10.20;;;;;;;;;;12821946;22;20317;-65
2023/12/04 23:33:38;;;;;;;16.60;10.88;;;;;;;;;;12820237;22;20030;-68
2023/12/04 23:38:35;;;;;;;14.55;10.02;;;;;;;;;;12822007;22;20532;-68
2023/12/04 23:43:31;;;;;;;15.35;10.45;;;;;;;;;;12820951;22;20015;-68
2023/12/04 23:48:27;;;;;;;17.73;11.20;;;;;;;;;;12821255;22;20037;-68
2023/12/04 23:53:24;;;;;;;18.95;11.27;;;;;;;;;;12820431;22;20076;-68
2023/12/04 23:58:21;;;;;;;17.45;11.20;;;;;;;;;;12820932;22;20027;-68
